Terminal Aerodrome Forecast
Issued by NWS

Home | Current Version | Previous Version | Text Only | Print | Product List | Glossary On
Versions: 1 2 3 4 5 6 7 8 9 10 11 12
000
FTUS45 KFGZ 172300
TAFGCN
TAF
KGCN 172324Z 1800/1824 24012G18KT P6SM FEW090
     FM180200 VRB05KT P6SM SCT250
     FM181800 21014G21KT P6SM OVC120=

USA.gov is the U.S. government's official web portal to all federal, state and local government web resources and services.